Portada
METAR-TAF:

METAR-TAF

Aeroports :

Payerne, Suïssa

latitud: 46-49N, longitud: 006-57E, altitud: 490 m

Observació

L'informe es va fer fa 18 minuts, a les 12:50 UTC
Vent 2 kt amb direcció variable
Temperatura 4°C
Humitat 87%
Pressió 1023 hPa
Visibilitat: 5000 m
Cel cobert a una alçada de 600 ft

METAR: LSMP 261250Z VRB02KT 5000 OVC006 04/02 Q1023 RMK YLO

Hora: 14:08 (13:08 UTC)


TAF: manca

Observacions i pronòstics meteorològics de més de 4000 aeroports (METAR i TAF).

Les estacions disponibles són els punts grocs i vermells al mapa.

Posi el ratolí al punt desitjat per veure el nom de l'estació.

Feu clic per veure les observacions i els pronòstics meteorològics.

Per canviar el mapa: feu clic els botons verds amb una creu de color negre per apropar; al botó verd amb un guió per allunyar la imatge; o en les fletxes verdes per a mapes adjacents.


METAR-TAF: